sensor_id;sensor_type;location;lat;lon;timestamp;P1;durP1;ratioP1;P2;durP2;ratioP2
36745;SDS011;22715;52.182;21.206;2023-02-22T00:01:23;5.07;;;2.15;;
36745;SDS011;22715;52.182;21.206;2023-02-22T00:04:08;8.60;;;2.90;;
36745;SDS011;22715;52.182;21.206;2023-02-22T00:06:34;7.50;;;3.83;;
36745;SDS011;22715;52.182;21.206;2023-02-22T00:09:01;6.13;;;2.60;;
36745;SDS011;22715;52.182;21.206;2023-02-22T00:11:30;13.38;;;4.20;;
36745;SDS011;22715;52.182;21.206;2023-02-22T00:13:55;6.80;;;2.83;;
36745;SDS011;22715;52.182;21.206;2023-02-22T00:16:21;8.73;;;2.65;;
36745;SDS011;22715;52.182;21.206;2023-02-22T00:18:47;6.18;;;3.05;;
36745;SDS011;22715;52.182;21.206;2023-02-22T00:21:13;7.88;;;2.65;;
36745;SDS011;22715;52.182;21.206;2023-02-22T00:23:40;10.85;;;2.80;;
36745;SDS011;22715;52.182;21.206;2023-02-22T00:26:10;13.20;;;3.88;;
36745;SDS011;22715;52.182;21.206;2023-02-22T00:28:37;8.60;;;2.47;;
36745;SDS011;22715;52.182;21.206;2023-02-22T00:31:03;8.02;;;3.17;;
36745;SDS011;22715;52.182;21.206;2023-02-22T00:33:29;12.02;;;3.47;;
36745;SDS011;22715;52.182;21.206;2023-02-22T00:35:54;5.32;;;3.28;;
36745;SDS011;22715;52.182;21.206;2023-02-22T00:38:20;7.95;;;3.00;;
36745;SDS011;22715;52.182;21.206;2023-02-22T00:40:45;9.30;;;3.35;;
36745;SDS011;22715;52.182;21.206;2023-02-22T00:43:10;7.10;;;3.72;;
36745;SDS011;22715;52.182;21.206;2023-02-22T00:45:36;8.15;;;3.97;;
36745;SDS011;22715;52.182;21.206;2023-02-22T00:48:02;8.35;;;2.97;;
36745;SDS011;22715;52.182;21.206;2023-02-22T00:50:28;8.20;;;2.65;;
36745;SDS011;22715;52.182;21.206;2023-02-22T00:52:54;6.75;;;3.58;;
36745;SDS011;22715;52.182;21.206;2023-02-22T00:55:30;10.88;;;3.50;;
36745;SDS011;22715;52.182;21.206;2023-02-22T00:57:55;10.35;;;2.92;;
36745;SDS011;22715;52.182;21.206;2023-02-22T01:00:25;9.38;;;2.67;;
36745;SDS011;22715;52.182;21.206;2023-02-22T01:02:51;5.78;;;2.95;;
36745;SDS011;22715;52.182;21.206;2023-02-22T01:05:18;6.75;;;2.92;;
36745;SDS011;22715;52.182;21.206;2023-02-22T01:07:45;6.30;;;3.10;;
36745;SDS011;22715;52.182;21.206;2023-02-22T01:10:11;6.78;;;3.00;;
36745;SDS011;22715;52.182;21.206;2023-02-22T01:12:36;7.82;;;3.97;;
36745;SDS011;22715;52.182;21.206;2023-02-22T01:15:03;7.32;;;2.90;;
36745;SDS011;22715;52.182;21.206;2023-02-22T01:17:28;9.23;;;3.92;;
36745;SDS011;22715;52.182;21.206;2023-02-22T01:19:54;12.38;;;4.75;;
36745;SDS011;22715;52.182;21.206;2023-02-22T01:22:20;7.07;;;3.38;;
36745;SDS011;22715;52.182;21.206;2023-02-22T01:24:46;10.68;;;4.93;;
36745;SDS011;22715;52.182;21.206;2023-02-22T01:27:12;11.95;;;5.60;;
36745;SDS011;22715;52.182;21.206;2023-02-22T01:29:37;19.20;;;6.45;;
36745;SDS011;22715;52.182;21.206;2023-02-22T01:32:03;21.35;;;6.90;;
36745;SDS011;22715;52.182;21.206;2023-02-22T01:34:30;11.75;;;5.05;;
36745;SDS011;22715;52.182;21.206;2023-02-22T01:36:57;8.35;;;4.88;;
36745;SDS011;22715;52.182;21.206;2023-02-22T01:39:22;7.35;;;4.05;;
36745;SDS011;22715;52.182;21.206;2023-02-22T01:41:47;7.18;;;3.97;;
36745;SDS011;22715;52.182;21.206;2023-02-22T01:44:32;8.57;;;4.05;;
36745;SDS011;22715;52.182;21.206;2023-02-22T01:46:58;7.85;;;3.85;;
36745;SDS011;22715;52.182;21.206;2023-02-22T01:49:25;8.20;;;4.75;;
36745;SDS011;22715;52.182;21.206;2023-02-22T01:51:52;12.27;;;2.65;;
36745;SDS011;22715;52.182;21.206;2023-02-22T01:54:21;6.75;;;2.67;;
36745;SDS011;22715;52.182;21.206;2023-02-22T01:56:49;7.93;;;3.50;;
36745;SDS011;22715;52.182;21.206;2023-02-22T01:59:16;11.80;;;2.58;;
36745;SDS011;22715;52.182;21.206;2023-02-22T02:01:42;12.63;;;3.75;;
36745;SDS011;22715;52.182;21.206;2023-02-22T02:04:16;12.77;;;2.95;;
36745;SDS011;22715;52.182;21.206;2023-02-22T02:06:42;4.05;;;2.20;;
36745;SDS011;22715;52.182;21.206;2023-02-22T02:09:13;4.43;;;2.72;;
36745;SDS011;22715;52.182;21.206;2023-02-22T02:11:40;6.40;;;2.92;;
36745;SDS011;22715;52.182;21.206;2023-02-22T02:14:06;3.30;;;2.40;;
36745;SDS011;22715;52.182;21.206;2023-02-22T02:16:42;12.32;;;3.22;;
36745;SDS011;22715;52.182;21.206;2023-02-22T02:19:18;6.43;;;2.30;;
36745;SDS011;22715;52.182;21.206;2023-02-22T02:24:31;5.95;;;2.67;;
36745;SDS011;22715;52.182;21.206;2023-02-22T02:29:34;5.17;;;2.83;;
36745;SDS011;22715;52.182;21.206;2023-02-22T02:39:38;8.80;;;2.00;;
36745;SDS011;22715;52.182;21.206;2023-02-22T02:42:07;5.95;;;1.92;;
36745;SDS011;22715;52.182;21.206;2023-02-22T02:44:39;5.18;;;2.30;;
36745;SDS011;22715;52.182;21.206;2023-02-22T02:47:08;7.68;;;2.35;;
36745;SDS011;22715;52.182;21.206;2023-02-22T02:49:36;6.15;;;2.13;;
36745;SDS011;22715;52.182;21.206;2023-02-22T02:52:04;4.80;;;2.13;;
36745;SDS011;22715;52.182;21.206;2023-02-22T02:54:29;6.32;;;2.28;;
36745;SDS011;22715;52.182;21.206;2023-02-22T02:56:56;5.15;;;2.78;;
36745;SDS011;22715;52.182;21.206;2023-02-22T02:59:23;6.45;;;2.72;;
36745;SDS011;22715;52.182;21.206;2023-02-22T03:01:54;7.82;;;2.30;;
36745;SDS011;22715;52.182;21.206;2023-02-22T03:10:01;5.97;;;2.80;;
36745;SDS011;22715;52.182;21.206;2023-02-22T03:15:34;5.82;;;2.85;;
36745;SDS011;22715;52.182;21.206;2023-02-22T03:18:04;14.10;;;3.20;;
36745;SDS011;22715;52.182;21.206;2023-02-22T03:20:42;6.95;;;2.15;;
36745;SDS011;22715;52.182;21.206;2023-02-22T03:25:57;7.30;;;2.72;;
36745;SDS011;22715;52.182;21.206;2023-02-22T03:28:23;4.15;;;2.80;;
36745;SDS011;22715;52.182;21.206;2023-02-22T03:30:52;4.10;;;2.30;;
36745;SDS011;22715;52.182;21.206;2023-02-22T03:33:22;6.18;;;2.58;;
36745;SDS011;22715;52.182;21.206;2023-02-22T03:38:35;4.50;;;2.55;;
36745;SDS011;22715;52.182;21.206;2023-02-22T03:41:01;4.53;;;1.92;;
36745;SDS011;22715;52.182;21.206;2023-02-22T03:43:30;6.72;;;1.58;;
36745;SDS011;22715;52.182;21.206;2023-02-22T03:45:58;4.45;;;1.80;;
36745;SDS011;22715;52.182;21.206;2023-02-22T03:48:26;2.95;;;1.25;;
36745;SDS011;22715;52.182;21.206;2023-02-22T03:50:54;4.15;;;1.40;;
36745;SDS011;22715;52.182;21.206;2023-02-22T03:53:22;6.55;;;1.90;;
36745;SDS011;22715;52.182;21.206;2023-02-22T03:55:47;3.90;;;1.30;;
36745;SDS011;22715;52.182;21.206;2023-02-22T03:58:15;4.15;;;1.40;;
36745;SDS011;22715;52.182;21.206;2023-02-22T04:00:42;2.10;;;1.40;;
36745;SDS011;22715;52.182;21.206;2023-02-22T04:03:08;3.67;;;1.30;;
36745;SDS011;22715;52.182;21.206;2023-02-22T04:08:37;3.50;;;2.08;;
36745;SDS011;22715;52.182;21.206;2023-02-22T04:11:02;4.57;;;1.30;;
36745;SDS011;22715;52.182;21.206;2023-02-22T04:13:28;2.25;;;2.00;;
36745;SDS011;22715;52.182;21.206;2023-02-22T04:15:53;3.90;;;2.13;;
36745;SDS011;22715;52.182;21.206;2023-02-22T04:18:18;1.88;;;1.52;;
36745;SDS011;22715;52.182;21.206;2023-02-22T04:20:44;3.65;;;1.60;;
36745;SDS011;22715;52.182;21.206;2023-02-22T04:23:09;3.10;;;1.40;;
36745;SDS011;22715;52.182;21.206;2023-02-22T04:25:35;2.00;;;1.02;;
36745;SDS011;22715;52.182;21.206;2023-02-22T04:28:00;1.60;;;1.20;;
36745;SDS011;22715;52.182;21.206;2023-02-22T04:30:26;2.22;;;1.25;;
36745;SDS011;22715;52.182;21.206;2023-02-22T04:32:54;2.40;;;1.45;;
36745;SDS011;22715;52.182;21.206;2023-02-22T04:35:19;2.05;;;1.45;;
36745;SDS011;22715;52.182;21.206;2023-02-22T04:37:44;1.73;;;1.60;;
36745;SDS011;22715;52.182;21.206;2023-02-22T04:40:10;1.60;;;1.20;;
36745;SDS011;22715;52.182;21.206;2023-02-22T04:42:36;2.60;;;1.13;;
36745;SDS011;22715;52.182;21.206;2023-02-22T04:45:05;1.15;;;0.95;;
36745;SDS011;22715;52.182;21.206;2023-02-22T04:47:32;2.80;;;1.65;;
36745;SDS011;22715;52.182;21.206;2023-02-22T04:49:57;1.58;;;1.23;;
36745;SDS011;22715;52.182;21.206;2023-02-22T04:52:24;2.30;;;0.93;;
36745;SDS011;22715;52.182;21.206;2023-02-22T04:54:50;2.22;;;1.67;;
36745;SDS011;22715;52.182;21.206;2023-02-22T04:57:15;1.73;;;1.30;;
36745;SDS011;22715;52.182;21.206;2023-02-22T04:59:40;1.50;;;1.20;;
36745;SDS011;22715;52.182;21.206;2023-02-22T05:02:06;1.33;;;0.80;;
36745;SDS011;22715;52.182;21.206;2023-02-22T05:04:31;1.38;;;1.27;;
36745;SDS011;22715;52.182;21.206;2023-02-22T05:06:56;1.23;;;0.93;;
36745;SDS011;22715;52.182;21.206;2023-02-22T05:09:21;1.10;;;0.90;;
36745;SDS011;22715;52.182;21.206;2023-02-22T05:11:47;1.73;;;1.17;;
36745;SDS011;22715;52.182;21.206;2023-02-22T05:14:13;1.75;;;1.25;;
36745;SDS011;22715;52.182;21.206;2023-02-22T05:16:38;1.63;;;0.98;;
36745;SDS011;22715;52.182;21.206;2023-02-22T05:19:03;2.85;;;1.70;;
36745;SDS011;22715;52.182;21.206;2023-02-22T05:21:29;3.83;;;1.23;;
36745;SDS011;22715;52.182;21.206;2023-02-22T05:23:54;1.15;;;0.90;;
36745;SDS011;22715;52.182;21.206;2023-02-22T05:26:19;1.55;;;1.10;;
36745;SDS011;22715;52.182;21.206;2023-02-22T05:28:44;4.68;;;1.92;;
36745;SDS011;22715;52.182;21.206;2023-02-22T05:31:12;5.45;;;1.48;;
36745;SDS011;22715;52.182;21.206;2023-02-22T05:33:37;2.70;;;1.30;;
36745;SDS011;22715;52.182;21.206;2023-02-22T05:36:03;1.92;;;1.30;;
36745;SDS011;22715;52.182;21.206;2023-02-22T05:38:29;5.85;;;2.22;;
36745;SDS011;22715;52.182;21.206;2023-02-22T05:40:54;1.30;;;0.80;;
36745;SDS011;22715;52.182;21.206;2023-02-22T05:43:20;1.83;;;1.30;;
36745;SDS011;22715;52.182;21.206;2023-02-22T05:45:46;1.13;;;1.00;;
36745;SDS011;22715;52.182;21.206;2023-02-22T05:48:11;1.13;;;0.73;;
36745;SDS011;22715;52.182;21.206;2023-02-22T05:50:37;2.53;;;1.70;;
36745;SDS011;22715;52.182;21.206;2023-02-22T05:53:02;1.45;;;1.08;;
36745;SDS011;22715;52.182;21.206;2023-02-22T05:55:27;2.78;;;1.20;;
36745;SDS011;22715;52.182;21.206;2023-02-22T05:57:53;4.03;;;1.65;;
36745;SDS011;22715;52.182;21.206;2023-02-22T06:00:28;2.13;;;1.23;;
36745;SDS011;22715;52.182;21.206;2023-02-22T06:02:54;2.78;;;1.25;;
36745;SDS011;22715;52.182;21.206;2023-02-22T06:05:19;2.47;;;1.30;;
36745;SDS011;22715;52.182;21.206;2023-02-22T06:07:44;2.70;;;1.50;;
36745;SDS011;22715;52.182;21.206;2023-02-22T06:10:10;2.17;;;1.52;;
36745;SDS011;22715;52.182;21.206;2023-02-22T06:12:35;1.48;;;0.98;;
36745;SDS011;22715;52.182;21.206;2023-02-22T06:15:00;2.03;;;1.20;;
36745;SDS011;22715;52.182;21.206;2023-02-22T06:17:26;2.13;;;1.40;;
36745;SDS011;22715;52.182;21.206;2023-02-22T06:19:51;4.20;;;1.45;;
36745;SDS011;22715;52.182;21.206;2023-02-22T06:22:17;1.67;;;0.90;;
36745;SDS011;22715;52.182;21.206;2023-02-22T06:24:42;2.83;;;1.95;;
36745;SDS011;22715;52.182;21.206;2023-02-22T06:27:07;1.75;;;1.13;;
36745;SDS011;22715;52.182;21.206;2023-02-22T06:29:33;2.42;;;1.67;;
36745;SDS011;22715;52.182;21.206;2023-02-22T06:31:58;1.55;;;1.40;;
36745;SDS011;22715;52.182;21.206;2023-02-22T06:34:23;1.85;;;1.50;;
36745;SDS011;22715;52.182;21.206;2023-02-22T06:36:48;1.70;;;1.05;;
36745;SDS011;22715;52.182;21.206;2023-02-22T06:39:14;1.80;;;1.23;;
36745;SDS011;22715;52.182;21.206;2023-02-22T06:41:40;2.50;;;1.33;;
36745;SDS011;22715;52.182;21.206;2023-02-22T06:44:06;1.30;;;1.15;;
36745;SDS011;22715;52.182;21.206;2023-02-22T06:46:31;1.65;;;1.23;;
36745;SDS011;22715;52.182;21.206;2023-02-22T06:48:57;2.17;;;1.42;;
36745;SDS011;22715;52.182;21.206;2023-02-22T06:51:24;2.15;;;1.73;;
36745;SDS011;22715;52.182;21.206;2023-02-22T06:53:49;1.90;;;1.63;;
36745;SDS011;22715;52.182;21.206;2023-02-22T06:56:14;1.85;;;1.20;;
36745;SDS011;22715;52.182;21.206;2023-02-22T06:58:40;2.47;;;2.08;;
36745;SDS011;22715;52.182;21.206;2023-02-22T07:01:05;2.55;;;1.58;;
36745;SDS011;22715;52.182;21.206;2023-02-22T07:03:32;2.70;;;1.38;;
36745;SDS011;22715;52.182;21.206;2023-02-22T07:05:57;2.85;;;2.28;;
36745;SDS011;22715;52.182;21.206;2023-02-22T07:08:23;2.50;;;1.63;;
36745;SDS011;22715;52.182;21.206;2023-02-22T07:10:48;3.13;;;1.20;;
36745;SDS011;22715;52.182;21.206;2023-02-22T07:13:14;1.67;;;0.90;;
36745;SDS011;22715;52.182;21.206;2023-02-22T07:15:39;2.25;;;1.50;;
36745;SDS011;22715;52.182;21.206;2023-02-22T07:18:05;1.73;;;1.30;;
36745;SDS011;22715;52.182;21.206;2023-02-22T07:20:31;1.88;;;1.20;;
36745;SDS011;22715;52.182;21.206;2023-02-22T07:22:56;2.05;;;1.42;;
36745;SDS011;22715;52.182;21.206;2023-02-22T07:25:22;1.35;;;0.95;;
36745;SDS011;22715;52.182;21.206;2023-02-22T07:27:47;3.17;;;1.25;;
36745;SDS011;22715;52.182;21.206;2023-02-22T07:32:42;1.60;;;1.38;;
36745;SDS011;22715;52.182;21.206;2023-02-22T07:35:12;2.05;;;1.17;;
36745;SDS011;22715;52.182;21.206;2023-02-22T07:37:37;2.75;;;1.13;;
36745;SDS011;22715;52.182;21.206;2023-02-22T07:40:03;1.40;;;0.75;;
36745;SDS011;22715;52.182;21.206;2023-02-22T07:42:28;2.65;;;0.93;;
36745;SDS011;22715;52.182;21.206;2023-02-22T07:44:53;1.90;;;0.80;;
36745;SDS011;22715;52.182;21.206;2023-02-22T07:47:18;1.23;;;0.93;;
36745;SDS011;22715;52.182;21.206;2023-02-22T07:49:44;1.08;;;1.02;;
36745;SDS011;22715;52.182;21.206;2023-02-22T07:52:09;1.30;;;1.02;;
36745;SDS011;22715;52.182;21.206;2023-02-22T07:54:36;2.55;;;0.90;;
36745;SDS011;22715;52.182;21.206;2023-02-22T07:57:01;1.35;;;1.08;;
36745;SDS011;22715;52.182;21.206;2023-02-22T07:59:27;2.72;;;1.45;;
36745;SDS011;22715;52.182;21.206;2023-02-22T08:01:52;2.60;;;1.37;;
36745;SDS011;22715;52.182;21.206;2023-02-22T08:04:18;1.25;;;1.10;;
36745;SDS011;22715;52.182;21.206;2023-02-22T08:06:43;3.55;;;0.95;;
36745;SDS011;22715;52.182;21.206;2023-02-22T08:09:10;0.95;;;0.82;;
36745;SDS011;22715;52.182;21.206;2023-02-22T08:11:38;0.70;;;0.52;;
36745;SDS011;22715;52.182;21.206;2023-02-22T08:14:04;0.90;;;0.60;;
36745;SDS011;22715;52.182;21.206;2023-02-22T08:16:29;1.20;;;0.70;;
36745;SDS011;22715;52.182;21.206;2023-02-22T08:18:54;1.40;;;0.70;;
36745;SDS011;22715;52.182;21.206;2023-02-22T08:21:19;1.98;;;0.95;;
36745;SDS011;22715;52.182;21.206;2023-02-22T08:23:45;2.73;;;0.60;;
36745;SDS011;22715;52.182;21.206;2023-02-22T08:26:14;1.27;;;0.65;;
36745;SDS011;22715;52.182;21.206;2023-02-22T08:28:42;1.33;;;0.90;;
36745;SDS011;22715;52.182;21.206;2023-02-22T08:31:07;0.67;;;0.50;;
36745;SDS011;22715;52.182;21.206;2023-02-22T08:33:32;0.85;;;0.60;;
36745;SDS011;22715;52.182;21.206;2023-02-22T08:35:59;1.40;;;0.82;;
36745;SDS011;22715;52.182;21.206;2023-02-22T08:38:26;0.77;;;0.70;;
36745;SDS011;22715;52.182;21.206;2023-02-22T08:40:52;1.45;;;1.00;;
36745;SDS011;22715;52.182;21.206;2023-02-22T08:43:18;1.58;;;1.00;;
36745;SDS011;22715;52.182;21.206;2023-02-22T08:45:43;1.63;;;1.10;;
36745;SDS011;22715;52.182;21.206;2023-02-22T08:48:09;1.08;;;0.50;;
36745;SDS011;22715;52.182;21.206;2023-02-22T08:50:34;1.33;;;1.13;;
36745;SDS011;22715;52.182;21.206;2023-02-22T08:53:01;1.02;;;0.95;;
36745;SDS011;22715;52.182;21.206;2023-02-22T08:55:27;1.40;;;0.43;;
36745;SDS011;22715;52.182;21.206;2023-02-22T08:57:55;1.33;;;0.68;;
36745;SDS011;22715;52.182;21.206;2023-02-22T09:00:21;1.40;;;0.93;;
36745;SDS011;22715;52.182;21.206;2023-02-22T09:02:49;0.68;;;0.50;;
36745;SDS011;22715;52.182;21.206;2023-02-22T09:05:16;2.45;;;1.05;;
36745;SDS011;22715;52.182;21.206;2023-02-22T09:07:42;1.35;;;0.75;;
36745;SDS011;22715;52.182;21.206;2023-02-22T09:10:20;1.08;;;0.70;;
36745;SDS011;22715;52.182;21.206;2023-02-22T09:12:48;0.70;;;0.70;;
36745;SDS011;22715;52.182;21.206;2023-02-22T09:15:13;4.20;;;1.98;;
36745;SDS011;22715;52.182;21.206;2023-02-22T09:17:39;1.20;;;0.80;;
36745;SDS011;22715;52.182;21.206;2023-02-22T09:20:04;1.37;;;1.27;;
36745;SDS011;22715;52.182;21.206;2023-02-22T09:22:30;1.63;;;0.93;;
36745;SDS011;22715;52.182;21.206;2023-02-22T09:25:01;2.28;;;1.55;;
36745;SDS011;22715;52.182;21.206;2023-02-22T09:27:29;0.80;;;0.70;;
36745;SDS011;22715;52.182;21.206;2023-02-22T09:29:54;1.55;;;1.10;;
36745;SDS011;22715;52.182;21.206;2023-02-22T09:32:22;1.17;;;1.00;;
36745;SDS011;22715;52.182;21.206;2023-02-22T09:34:51;4.32;;;1.50;;
36745;SDS011;22715;52.182;21.206;2023-02-22T09:37:16;2.95;;;1.50;;
36745;SDS011;22715;52.182;21.206;2023-02-22T09:39:42;2.45;;;1.38;;
36745;SDS011;22715;52.182;21.206;2023-02-22T09:47:00;3.47;;;1.35;;
36745;SDS011;22715;52.182;21.206;2023-02-22T09:52:07;4.50;;;2.33;;
36745;SDS011;22715;52.182;21.206;2023-02-22T09:54:43;1.55;;;1.30;;
36745;SDS011;22715;52.182;21.206;2023-02-22T09:57:13;2.50;;;1.33;;
36745;SDS011;22715;52.182;21.206;2023-02-22T09:59:56;1.70;;;1.13;;
36745;SDS011;22715;52.182;21.206;2023-02-22T10:02:25;2.88;;;1.60;;
36745;SDS011;22715;52.182;21.206;2023-02-22T10:05:02;2.80;;;1.50;;
36745;SDS011;22715;52.182;21.206;2023-02-22T10:07:42;1.73;;;0.98;;
36745;SDS011;22715;52.182;21.206;2023-02-22T10:10:13;1.58;;;0.90;;
36745;SDS011;22715;52.182;21.206;2023-02-22T10:15:22;1.77;;;1.27;;
36745;SDS011;22715;52.182;21.206;2023-02-22T10:17:55;2.63;;;1.23;;
36745;SDS011;22715;52.182;21.206;2023-02-22T10:31:41;2.35;;;1.13;;
36745;SDS011;22715;52.182;21.206;2023-02-22T10:34:29;2.15;;;1.52;;
36745;SDS011;22715;52.182;21.206;2023-02-22T10:36:58;3.50;;;1.70;;
36745;SDS011;22715;52.182;21.206;2023-02-22T10:39:39;2.65;;;2.45;;
36745;SDS011;22715;52.182;21.206;2023-02-22T10:42:08;2.95;;;2.13;;
36745;SDS011;22715;52.182;21.206;2023-02-22T10:44:35;3.55;;;2.38;;
36745;SDS011;22715;52.182;21.206;2023-02-22T10:47:08;4.88;;;2.35;;
36745;SDS011;22715;52.182;21.206;2023-02-22T10:49:48;4.93;;;3.17;;
36745;SDS011;22715;52.182;21.206;2023-02-22T10:52:28;4.32;;;2.15;;
36745;SDS011;22715;52.182;21.206;2023-02-22T10:54:54;7.65;;;3.03;;
36745;SDS011;22715;52.182;21.206;2023-02-22T10:57:21;5.63;;;3.83;;
36745;SDS011;22715;52.182;21.206;2023-02-22T10:59:48;4.70;;;2.60;;
36745;SDS011;22715;52.182;21.206;2023-02-22T11:04:48;4.30;;;2.87;;
36745;SDS011;22715;52.182;21.206;2023-02-22T11:07:33;4.05;;;2.63;;
36745;SDS011;22715;52.182;21.206;2023-02-22T11:10:00;6.43;;;2.90;;
36745;SDS011;22715;52.182;21.206;2023-02-22T11:12:27;4.82;;;2.88;;
36745;SDS011;22715;52.182;21.206;2023-02-22T11:14:53;8.48;;;3.30;;
36745;SDS011;22715;52.182;21.206;2023-02-22T11:17:23;3.97;;;2.83;;
36745;SDS011;22715;52.182;21.206;2023-02-22T11:19:51;4.88;;;3.00;;
36745;SDS011;22715;52.182;21.206;2023-02-22T11:22:24;6.03;;;3.35;;
36745;SDS011;22715;52.182;21.206;2023-02-22T11:24:53;4.85;;;3.28;;
36745;SDS011;22715;52.182;21.206;2023-02-22T11:27:32;3.58;;;2.33;;
36745;SDS011;22715;52.182;21.206;2023-02-22T11:32:43;5.07;;;2.78;;
36745;SDS011;22715;52.182;21.206;2023-02-22T11:35:18;5.55;;;4.20;;
36745;SDS011;22715;52.182;21.206;2023-02-22T11:37:44;3.20;;;2.22;;
36745;SDS011;22715;52.182;21.206;2023-02-22T11:42:43;7.10;;;2.83;;
36745;SDS011;22715;52.182;21.206;2023-02-22T11:47:34;3.03;;;2.42;;
36745;SDS011;22715;52.182;21.206;2023-02-22T11:50:00;3.92;;;2.33;;
36745;SDS011;22715;52.182;21.206;2023-02-22T11:52:35;7.85;;;2.63;;
36745;SDS011;22715;52.182;21.206;2023-02-22T11:55:08;2.80;;;2.28;;
36745;SDS011;22715;52.182;21.206;2023-02-22T12:03:16;3.30;;;2.70;;
36745;SDS011;22715;52.182;21.206;2023-02-22T12:06:01;5.70;;;2.85;;
36745;SDS011;22715;52.182;21.206;2023-02-22T12:13:29;5.75;;;2.40;;
36745;SDS011;22715;52.182;21.206;2023-02-22T12:16:12;6.43;;;3.45;;
36745;SDS011;22715;52.182;21.206;2023-02-22T12:18:43;4.20;;;2.72;;
36745;SDS011;22715;52.182;21.206;2023-02-22T12:21:17;3.40;;;1.92;;
36745;SDS011;22715;52.182;21.206;2023-02-22T12:26:17;5.57;;;2.47;;
36745;SDS011;22715;52.182;21.206;2023-02-22T12:28:46;3.20;;;2.17;;
36745;SDS011;22715;52.182;21.206;2023-02-22T12:36:24;3.85;;;2.92;;
36745;SDS011;22715;52.182;21.206;2023-02-22T12:38:53;3.33;;;2.20;;
36745;SDS011;22715;52.182;21.206;2023-02-22T12:41:24;3.80;;;2.28;;
36745;SDS011;22715;52.182;21.206;2023-02-22T12:46:20;3.13;;;1.73;;
36745;SDS011;22715;52.182;21.206;2023-02-22T12:48:56;5.53;;;2.33;;
36745;SDS011;22715;52.182;21.206;2023-02-22T12:51:25;7.40;;;2.22;;
36745;SDS011;22715;52.182;21.206;2023-02-22T12:54:03;5.13;;;3.10;;
36745;SDS011;22715;52.182;21.206;2023-02-22T12:56:33;4.03;;;2.40;;
36745;SDS011;22715;52.182;21.206;2023-02-22T13:01:31;3.83;;;2.30;;
36745;SDS011;22715;52.182;21.206;2023-02-22T13:03:58;3.50;;;2.25;;
36745;SDS011;22715;52.182;21.206;2023-02-22T13:14:05;9.23;;;3.72;;
36745;SDS011;22715;52.182;21.206;2023-02-22T13:19:11;4.57;;;2.15;;
36745;SDS011;22715;52.182;21.206;2023-02-22T13:22:24;3.80;;;2.20;;
36745;SDS011;22715;52.182;21.206;2023-02-22T13:24:46;3.83;;;2.15;;
36745;SDS011;22715;52.182;21.206;2023-02-22T13:29:58;4.57;;;2.13;;
36745;SDS011;22715;52.182;21.206;2023-02-22T13:35:00;4.97;;;2.58;;
36745;SDS011;22715;52.182;21.206;2023-02-22T13:37:36;5.40;;;2.40;;
36745;SDS011;22715;52.182;21.206;2023-02-22T13:52:39;5.35;;;2.95;;
36745;SDS011;22715;52.182;21.206;2023-02-22T13:55:05;6.30;;;2.22;;
36745;SDS011;22715;52.182;21.206;2023-02-22T13:57:45;5.38;;;3.55;;
36745;SDS011;22715;52.182;21.206;2023-02-22T14:02:58;5.55;;;2.95;;
36745;SDS011;22715;52.182;21.206;2023-02-22T14:05:58;5.28;;;3.13;;
36745;SDS011;22715;52.182;21.206;2023-02-22T14:13:09;4.38;;;1.90;;
36745;SDS011;22715;52.182;21.206;2023-02-22T14:15:35;3.88;;;2.22;;
36745;SDS011;22715;52.182;21.206;2023-02-22T14:20:27;3.03;;;1.70;;
36745;SDS011;22715;52.182;21.206;2023-02-22T14:22:57;3.17;;;1.60;;
36745;SDS011;22715;52.182;21.206;2023-02-22T14:25:41;4.03;;;2.25;;
36745;SDS011;22715;52.182;21.206;2023-02-22T14:36:15;3.92;;;1.98;;
36745;SDS011;22715;52.182;21.206;2023-02-22T14:38:42;5.00;;;2.20;;
36745;SDS011;22715;52.182;21.206;2023-02-22T14:41:08;2.03;;;1.63;;
36745;SDS011;22715;52.182;21.206;2023-02-22T14:43:34;3.25;;;1.77;;
36745;SDS011;22715;52.182;21.206;2023-02-22T14:46:00;3.80;;;1.83;;
36745;SDS011;22715;52.182;21.206;2023-02-22T14:48:38;3.45;;;2.08;;
36745;SDS011;22715;52.182;21.206;2023-02-22T14:51:16;3.70;;;2.28;;
36745;SDS011;22715;52.182;21.206;2023-02-22T14:53:47;3.63;;;1.80;;
36745;SDS011;22715;52.182;21.206;2023-02-22T14:56:14;3.50;;;2.03;;
36745;SDS011;22715;52.182;21.206;2023-02-22T14:58:42;3.88;;;1.85;;
36745;SDS011;22715;52.182;21.206;2023-02-22T15:01:35;2.85;;;2.05;;
36745;SDS011;22715;52.182;21.206;2023-02-22T15:04:17;2.53;;;1.13;;
36745;SDS011;22715;52.182;21.206;2023-02-22T15:06:42;4.70;;;2.03;;
36745;SDS011;22715;52.182;21.206;2023-02-22T15:11:36;4.95;;;2.63;;
36745;SDS011;22715;52.182;21.206;2023-02-22T15:14:10;3.50;;;2.00;;
36745;SDS011;22715;52.182;21.206;2023-02-22T15:16:38;12.55;;;2.08;;
36745;SDS011;22715;52.182;21.206;2023-02-22T15:19:10;5.22;;;2.20;;
36745;SDS011;22715;52.182;21.206;2023-02-22T15:21:35;5.68;;;1.80;;
36745;SDS011;22715;52.182;21.206;2023-02-22T15:24:09;3.20;;;2.30;;
36745;SDS011;22715;52.182;21.206;2023-02-22T15:26:40;4.15;;;1.92;;
36745;SDS011;22715;52.182;21.206;2023-02-22T15:29:09;2.78;;;1.95;;
36745;SDS011;22715;52.182;21.206;2023-02-22T15:31:39;3.63;;;1.50;;
36745;SDS011;22715;52.182;21.206;2023-02-22T15:34:19;2.60;;;1.70;;
36745;SDS011;22715;52.182;21.206;2023-02-22T15:36:48;3.35;;;1.83;;
36745;SDS011;22715;52.182;21.206;2023-02-22T15:42:07;3.10;;;2.08;;
36745;SDS011;22715;52.182;21.206;2023-02-22T15:44:34;3.42;;;2.03;;
36745;SDS011;22715;52.182;21.206;2023-02-22T15:47:00;9.57;;;2.78;;
36745;SDS011;22715;52.182;21.206;2023-02-22T15:49:26;3.63;;;2.33;;
36745;SDS011;22715;52.182;21.206;2023-02-22T15:52:01;2.33;;;1.55;;
36745;SDS011;22715;52.182;21.206;2023-02-22T15:54:27;4.10;;;2.17;;
36745;SDS011;22715;52.182;21.206;2023-02-22T15:56:52;6.65;;;2.97;;
36745;SDS011;22715;52.182;21.206;2023-02-22T15:59:20;2.65;;;1.67;;
36745;SDS011;22715;52.182;21.206;2023-02-22T16:01:48;4.00;;;2.60;;
36745;SDS011;22715;52.182;21.206;2023-02-22T16:04:16;2.40;;;1.95;;
36745;SDS011;22715;52.182;21.206;2023-02-22T16:06:41;1.98;;;1.35;;
36745;SDS011;22715;52.182;21.206;2023-02-22T16:09:10;2.75;;;1.83;;
36745;SDS011;22715;52.182;21.206;2023-02-22T16:11:37;2.65;;;1.70;;
36745;SDS011;22715;52.182;21.206;2023-02-22T16:14:29;3.75;;;2.38;;
36745;SDS011;22715;52.182;21.206;2023-02-22T16:22:03;4.82;;;1.95;;
36745;SDS011;22715;52.182;21.206;2023-02-22T16:24:30;3.60;;;2.85;;
36745;SDS011;22715;52.182;21.206;2023-02-22T16:27:03;7.57;;;2.55;;
36745;SDS011;22715;52.182;21.206;2023-02-22T16:29:29;3.80;;;2.08;;
36745;SDS011;22715;52.182;21.206;2023-02-22T16:31:54;8.07;;;2.45;;
36745;SDS011;22715;52.182;21.206;2023-02-22T16:34:20;3.35;;;2.55;;
36745;SDS011;22715;52.182;21.206;2023-02-22T16:36:46;5.05;;;2.95;;
36745;SDS011;22715;52.182;21.206;2023-02-22T16:39:17;3.65;;;2.30;;
36745;SDS011;22715;52.182;21.206;2023-02-22T16:41:43;6.75;;;2.72;;
36745;SDS011;22715;52.182;21.206;2023-02-22T16:44:09;6.18;;;2.20;;
36745;SDS011;22715;52.182;21.206;2023-02-22T16:46:36;6.13;;;2.85;;
36745;SDS011;22715;52.182;21.206;2023-02-22T16:49:02;4.88;;;2.25;;
36745;SDS011;22715;52.182;21.206;2023-02-22T16:51:27;4.28;;;2.13;;
36745;SDS011;22715;52.182;21.206;2023-02-22T16:53:53;6.57;;;3.42;;
36745;SDS011;22715;52.182;21.206;2023-02-22T16:56:20;6.20;;;2.92;;
36745;SDS011;22715;52.182;21.206;2023-02-22T16:58:47;4.85;;;2.67;;
36745;SDS011;22715;52.182;21.206;2023-02-22T17:01:14;5.63;;;2.55;;
36745;SDS011;22715;52.182;21.206;2023-02-22T17:03:40;5.68;;;3.67;;